Time;durP1;ratioP1;P1;durP2;ratioP2;P2;SDS_P1;SDS_P2;PMS_P1;PMS_P2;Temp;Humidity;BMP_temperature;BMP_pressure;BME280_temperature;BME280_humidity;BME280_pressure;Samples;Min_cycle;Max_cycle;Signal;HPM_P1;HPM_P2
2022/12/27 00:04:45;;;;;;;0.10;0.10;;;;;;;1.69;nan;101549.22;10553250;28;20142;-79
2022/12/27 00:09:47;;;;;;;0.52;0.52;;;;;;;1.71;nan;101554.47;10571515;28;20587;-79
2022/12/27 00:14:48;;;;;;;0.30;0.30;;;;;;;1.68;nan;101554.28;10545921;27;20043;-79
2022/12/27 00:19:50;;;;;;;0.40;0.40;;;;;;;1.64;nan;101550.63;10575129;27;20101;-78
2022/12/27 00:24:51;;;;;;;0.95;0.52;;;;;;;1.66;nan;101561.06;10519459;28;20084;-79
2022/12/27 00:29:53;;;;;;;2.83;0.75;;;;;;;1.72;nan;101574.34;10537616;28;20043;-79
2022/12/27 00:34:54;;;;;;;0.28;0.28;;;;;;;1.75;nan;101587.47;10552148;28;20043;-79
2022/12/27 00:39:56;;;;;;;0.10;0.10;;;;;;;1.75;nan;101587.47;10534079;27;20097;-78
2022/12/27 00:44:58;;;;;;;0.10;0.10;;;;;;;1.71;nan;101582.88;10592194;27;20068;-78
2022/12/27 00:49:59;;;;;;;1.33;0.45;;;;;;;1.69;nan;101587.94;10576894;27;20096;-78
2022/12/27 00:55:01;;;;;;;0.15;0.15;;;;;;;1.68;nan;101580.09;10563123;27;20156;-79
2022/12/27 01:00:04;;;;;;;5.50;1.40;;;;;;;1.79;nan;101578.22;10565054;27;20135;-79
2022/12/27 01:05:10;;;;;;;0.25;0.20;;;;;;;1.81;nan;101585.28;10592240;27;20039;-79
2022/12/27 01:10:12;;;;;;;0.30;0.30;;;;;;;1.82;nan;101592.25;10583422;27;20036;-79
2022/12/27 01:15:15;;;;;;;0.10;0.10;;;;;;;1.76;nan;101599.59;10571928;27;20035;-78
2022/12/27 01:20:16;;;;;;;0.10;0.10;;;;;;;1.79;nan;101592.03;10553073;27;20063;-79
2022/12/27 01:25:18;;;;;;;0.20;0.20;;;;;;;1.85;nan;101591.56;10567816;28;20085;-79
2022/12/27 01:30:21;;;;;;;0.47;0.47;;;;;;;1.87;nan;101598.59;10584314;27;20441;-79
2022/12/27 01:35:23;;;;;;;0.63;0.63;;;;;;;1.88;nan;101605.56;10583426;27;20070;-79
2022/12/27 01:40:24;;;;;;;0.10;0.10;;;;;;;1.91;nan;101597.13;10558674;27;20067;-80
2022/12/27 01:45:29;;;;;;;1.75;1.60;;;;;;;2.00;nan;101607.13;10582752;27;20120;-78
2022/12/27 01:50:42;;;;;;;1.15;0.30;;;;;;;1.94;nan;101615.41;10588329;27;20062;-78
2022/12/27 01:55:51;;;;;;;3.00;0.88;;;;;;;1.92;nan;101617.88;10590774;27;20482;-79
2022/12/27 02:00:55;;;;;;;;;;;;;;;1.92;nan;101617.88;10585164;27;20612;-79
2022/12/27 02:06:00;;;;;;;0.20;0.20;;;;;;;1.97;nan;101625.00;10583913;27;19923;-80
2022/12/27 02:11:04;;;;;;;2.08;1.30;;;;;;;2.01;nan;101632.19;10563221;28;20040;-79
2022/12/27 02:16:17;;;;;;;0.10;0.10;;;;;;;2.05;nan;101629.00;10585681;28;20039;-79
2022/12/27 02:21:24;;;;;;;0.10;0.10;;;;;;;2.03;nan;101621.16;10573057;28;20039;-80
2022/12/27 02:26:43;;;;;;;0.20;0.20;;;;;;;2.02;nan;101621.06;10585279;28;20140;-79
2022/12/27 02:31:58;;;;;;;0.75;0.50;;;;;;;1.99;nan;101618.28;10575067;28;20353;-79
2022/12/27 02:37:05;;;;;;;1.05;0.82;;;;;;;1.98;nan;101611.31;10556133;28;20494;-78
2022/12/27 02:53:25;;;;;;;0.28;0.28;;;;;;;1.89;nan;101615.09;10584506;27;20032;-79
2022/12/27 02:58:49;;;;;;;0.85;0.38;;;;;;;1.86;nan;101609.75;10588931;27;20039;-79
2022/12/27 03:04:20;;;;;;;0.17;0.17;;;;;;;1.87;nan;101614.09;10599516;27;20067;-80
2022/12/27 03:25:41;;;;;;;1.98;1.23;;;;;;;2.04;nan;101647.88;10573224;27;20120;-79
2022/12/27 03:47:27;;;;;;;0.32;0.32;;;;;;;2.19;nan;101642.81;10564656;27;20085;-78
2022/12/27 03:52:47;;;;;;;0.22;0.22;;;;;;;2.04;nan;101648.78;10582894;27;20095;-80
2022/12/27 03:57:48;;;;;;;0.30;0.30;;;;;;;1.94;nan;101654.16;10547569;28;20097;-79
2022/12/27 04:02:50;;;;;;;4.07;1.40;;;;;;;1.85;nan;101650.97;10557581;27;20506;-79
2022/12/27 04:34:45;;;;;;;0.10;0.10;;;;;;;2.17;nan;101673.72;10553990;28;20092;-79
2022/12/27 04:55:51;;;;;;;0.30;0.30;;;;;;;2.19;nan;101685.06;10569516;27;20051;-80
2022/12/27 05:06:16;;;;;;;1.30;0.40;;;;;;;2.12;nan;101700.97;10584784;27;20050;-79
2022/12/27 05:16:40;;;;;;;0.20;0.20;;;;;;;2.12;nan;101719.06;10578855;27;20035;-80
2022/12/27 05:27:03;;;;;;;0.30;0.30;;;;;;;2.13;nan;101738.91;10566315;27;20063;-80
2022/12/27 05:32:05;;;;;;;0.30;0.30;;;;;;;2.09;nan;101744.69;10566980;27;20043;-79
2022/12/27 05:37:13;;;;;;;6.93;1.48;;;;;;;2.05;nan;101748.75;10582487;27;20177;-81
2022/12/27 05:42:14;;;;;;;0.45;0.38;;;;;;;2.01;nan;101751.94;10568363;27;20074;-81
2022/12/27 05:47:16;;;;;;;0.57;0.57;;;;;;;2.00;nan;101754.38;10561913;27;20096;-81
2022/12/27 05:52:18;;;;;;;0.25;0.25;;;;;;;2.00;nan;101770.78;10569794;27;20031;-80
2022/12/27 05:57:19;;;;;;;1.35;0.90;;;;;;;2.04;nan;101764.13;10582680;27;20066;-81
2022/12/27 06:02:21;;;;;;;0.35;0.35;;;;;;;2.05;nan;101763.34;10598516;27;20100;-83
2022/12/27 06:07:22;;;;;;;0.13;0.13;;;;;;;2.08;nan;101779.06;10588274;27;20053;-81
2022/12/27 06:12:24;;;;;;;0.50;0.50;;;;;;;2.16;nan;101803.72;10590264;27;20043;-81
2022/12/27 06:17:26;;;;;;;2.53;1.55;;;;;;;2.23;nan;101803.34;10595208;27;20146;-80
2022/12/27 06:22:28;;;;;;;0.57;0.50;;;;;;;2.26;nan;101800.06;10579812;27;20120;-80
2022/12/27 06:27:29;;;;;;;0.10;0.10;;;;;;;2.18;nan;101803.81;10551531;27;20040;-80
2022/12/27 06:32:31;;;;;;;0.52;0.50;;;;;;;2.16;nan;101790.78;10603780;27;20039;-78
2022/12/27 06:37:32;;;;;;;0.38;0.20;;;;;;;2.14;nan;101797.56;10571234;27;20521;-79
2022/12/27 06:42:34;;;;;;;0.10;0.10;;;;;;;2.09;nan;101804.13;10574062;27;20070;-83
2022/12/27 06:47:36;;;;;;;0.65;0.50;;;;;;;2.08;nan;101810.06;10589428;27;20057;-81
2022/12/27 06:52:37;;;;;;;0.20;0.20;;;;;;;2.14;nan;101817.34;10592311;27;20035;-79
2022/12/27 06:57:39;;;;;;;0.47;0.43;;;;;;;2.16;nan;101820.91;10593419;27;20040;-79
2022/12/27 07:02:40;;;;;;;0.10;0.10;;;;;;;2.26;nan;101829.38;10569843;27;20043;-80
2022/12/27 07:07:42;;;;;;;0.20;0.20;;;;;;;2.30;nan;101849.50;10554903;27;20414;-80
2022/12/27 07:12:44;;;;;;;0.75;0.50;;;;;;;2.22;nan;101860.09;10594057;27;20128;-80
2022/12/27 07:17:46;;;;;;;0.13;0.13;;;;;;;2.17;nan;101859.78;10568739;27;20054;-80
2022/12/27 07:22:47;;;;;;;0.40;0.40;;;;;;;2.06;nan;101874.56;10584491;27;20050;-80
2022/12/27 07:27:49;;;;;;;0.30;0.28;;;;;;;2.01;nan;101877.59;10578791;27;20153;-80
2022/12/27 07:32:51;;;;;;;0.70;0.47;;;;;;;2.00;nan;101894.81;10555028;27;20088;-80
2022/12/27 07:37:52;;;;;;;0.63;0.63;;;;;;;1.98;nan;101898.94;10570224;27;20383;-80
2022/12/27 07:42:54;;;;;;;0.10;0.10;;;;;;;2.01;nan;101913.78;10566134;27;20551;-80
2022/12/27 07:47:55;;;;;;;0.20;0.20;;;;;;;2.00;nan;101919.72;10598487;27;20100;-80
2022/12/27 07:52:57;;;;;;;4.45;0.82;;;;;;;2.04;nan;101942.41;10570277;27;20608;-81
2022/12/27 07:57:58;;;;;;;0.70;0.60;;;;;;;1.99;nan;101948.94;10581624;27;20051;-79
2022/12/27 08:03:00;;;;;;;0.47;0.47;;;;;;;2.02;nan;101939.72;10585181;27;20039;-82
2022/12/27 08:08:03;;;;;;;0.55;0.35;;;;;;;2.07;nan;101956.47;10580328;27;20054;-80
2022/12/27 08:13:04;;;;;;;0.20;0.20;;;;;;;2.12;nan;101973.16;10591348;27;20433;-81
2022/12/27 08:18:07;;;;;;;0.55;0.55;;;;;;;2.20;nan;101976.28;10598629;27;20403;-81
2022/12/27 08:23:08;;;;;;;0.10;0.10;;;;;;;2.27;nan;101972.47;10590148;27;20176;-83
2022/12/27 08:28:13;;;;;;;1.83;0.93;;;;;;;2.22;nan;101969.56;10580858;27;20116;-81
2022/12/27 08:33:15;;;;;;;0.65;0.50;;;;;;;2.26;nan;101973.25;10588424;27;20104;-81
2022/12/27 08:38:17;;;;;;;0.40;0.40;;;;;;;2.38;nan;101980.94;10587747;27;20053;-81
2022/12/27 08:43:18;;;;;;;1.55;1.30;;;;;;;2.43;nan;101977.91;10560327;27;20103;-81
2022/12/27 08:48:20;;;;;;;0.43;0.43;;;;;;;2.60;nan;101979.06;10570283;27;20051;-81
2022/12/27 08:53:21;;;;;;;0.85;0.38;;;;;;;2.71;nan;101971.13;10561881;27;20121;-81
2022/12/27 08:58:23;;;;;;;1.40;0.75;;;;;;;2.65;nan;101982.84;10563465;28;20047;-81
2022/12/27 09:03:25;;;;;;;0.47;0.47;;;;;;;2.65;nan;101984.53;10581508;27;20065;-80
2022/12/27 09:08:26;;;;;;;1.85;1.48;;;;;;;2.68;nan;101996.78;10555818;27;20100;-81
2022/12/27 09:13:28;;;;;;;0.50;0.50;;;;;;;2.73;nan;102000.56;10583922;27;20031;-80
2022/12/27 09:18:29;;;;;;;0.73;0.65;;;;;;;2.73;nan;102001.50;10571972;27;20051;-80
2022/12/27 09:23:31;;;;;;;0.20;0.20;;;;;;;2.79;nan;102003.56;10573398;27;20080;-79
2022/12/27 09:28:34;;;;;;;1.20;0.70;;;;;;;2.85;nan;102003.09;10560270;27;20583;-79
2022/12/27 09:33:36;;;;;;;0.57;0.47;;;;;;;2.93;nan;102020.94;10589104;27;20040;-81
2022/12/27 09:38:38;;;;;;;0.20;0.20;;;;;;;2.97;nan;102015.19;10578172;27;20066;-81
2022/12/27 09:43:55;;;;;;;0.85;0.65;;;;;;;3.08;nan;102027.94;10568071;27;20544;-80
2022/12/27 09:48:57;;;;;;;1.00;0.90;;;;;;;3.16;nan;102045.78;10587111;27;20328;-82
2022/12/27 09:54:02;;;;;;;0.47;0.47;;;;;;;3.34;nan;102035.75;10599601;27;20039;-80
2022/12/27 09:59:15;;;;;;;0.20;0.20;;;;;;;3.69;nan;102037.19;10593911;27;20051;-82
2022/12/27 10:04:17;;;;;;;0.63;0.60;;;;;;;3.74;nan;102042.69;10577744;27;20111;-81
2022/12/27 10:09:41;;;;;;;0.63;0.63;;;;;;;3.84;nan;102038.97;10590928;27;20047;-80
2022/12/27 10:15:02;;;;;;;6.63;1.45;;;;;;;3.93;nan;102039.56;10584279;28;20048;-80
2022/12/27 10:20:54;;;;;;;1.02;0.82;;;;;;;3.90;nan;102036.75;10592008;28;20055;-80
2022/12/27 10:26:00;;;;;;;0.47;0.35;;;;;;;4.00;nan;102036.56;10539522;28;20039;-80
2022/12/27 10:31:03;;;;;;;1.00;0.82;;;;;;;4.18;nan;102035.94;10604392;28;20042;-81
2022/12/27 10:36:15;;;;;;;1.55;0.40;;;;;;;4.25;nan;102038.13;10591833;28;20077;-81
2022/12/27 10:41:32;;;;;;;0.93;0.85;;;;;;;4.39;nan;102047.66;10573267;28;20051;-81
2022/12/27 10:46:33;;;;;;;0.50;0.50;;;;;;;4.52;nan;102051.91;10582581;28;20092;-80
2022/12/27 10:51:38;;;;;;;3.10;0.82;;;;;;;4.59;nan;102055.78;10590933;28;20070;-80
2022/12/27 10:56:42;;;;;;;6.20;0.75;;;;;;;4.69;nan;102063.31;10591361;28;20507;-80
2022/12/27 11:01:47;;;;;;;1.58;0.68;;;;;;;4.67;nan;102054.56;10581753;27;20031;-80
2022/12/27 11:07:01;;;;;;;0.32;0.32;;;;;;;4.72;nan;102058.31;10612538;27;20043;-80
2022/12/27 11:12:20;;;;;;;0.88;0.60;;;;;;;4.80;nan;102057.91;10603604;27;20109;-80
2022/12/27 11:17:27;;;;;;;1.13;0.47;;;;;;;4.82;nan;102062.38;10586957;28;20043;-80
2022/12/27 11:22:29;;;;;;;0.22;0.22;;;;;;;4.78;nan;102068.19;10593373;28;20043;-80
2022/12/27 11:27:31;;;;;;;0.95;0.50;;;;;;;4.81;nan;102076.16;10626790;27;20051;-82
2022/12/27 11:32:33;;;;;;;1.45;0.70;;;;;;;4.64;nan;102074.22;10628793;27;20047;-80
2022/12/27 11:37:39;;;;;;;1.75;0.98;;;;;;;4.85;nan;102070.34;10600875;27;20043;-82
2022/12/27 11:42:47;;;;;;;1.27;0.82;;;;;;;4.93;nan;102078.59;10602465;27;20643;-80
2022/12/27 11:47:51;;;;;;;0.57;0.32;;;;;;;4.85;nan;102085.00;10632037;27;20049;-80
2022/12/27 11:52:56;;;;;;;0.45;0.40;;;;;;;4.87;nan;102088.63;10594616;27;20085;-80
2022/12/27 11:58:28;;;;;;;5.40;1.35;;;;;;;5.02;nan;102081.75;10564256;27;20067;-80
2022/12/27 12:04:18;;;;;;;2.08;1.08;;;;;;;5.00;nan;102085.97;10537462;28;20069;-81
2022/12/27 12:09:39;;;;;;;1.33;0.63;;;;;;;5.00;nan;102078.19;10572576;28;20445;-80
2022/12/27 12:14:59;;;;;;;;;;;;;;;5.02;nan;102075.69;10549362;28;20052;-80
2022/12/27 12:20:30;;;;;;;3.80;1.83;;;;;;;5.02;nan;102066.19;10572966;28;19935;-81
2022/12/27 12:25:48;;;;;;;;;;;;;;;5.26;nan;102066.75;10558022;28;20521;-80
2022/12/27 12:30:58;;;;;;;1.00;0.85;;;;;;;5.48;nan;102075.81;10578505;28;19920;-81
2022/12/27 12:36:29;;;;;;;2.00;0.87;;;;;;;5.40;nan;102071.84;10575152;28;20555;-81
2022/12/27 12:42:16;;;;;;;0.52;0.40;;;;;;;5.29;nan;102066.03;10568384;28;20039;-81
2022/12/27 12:47:25;;;;;;;1.25;0.90;;;;;;;5.24;nan;102062.25;10555542;28;20144;-81
2022/12/27 12:52:34;;;;;;;0.57;0.50;;;;;;;5.27;nan;102054.66;10550382;28;20051;-84
2022/12/27 12:57:57;;;;;;;0.65;0.30;;;;;;;5.25;nan;102066.66;10556262;28;20055;-81
2022/12/27 13:03:16;;;;;;;0.65;0.52;;;;;;;5.32;nan;102054.13;10576500;28;20100;-81
2022/12/27 13:08:37;;;;;;;1.70;1.03;;;;;;;5.22;nan;102061.28;10558188;28;20055;-81
2022/12/27 13:13:46;;;;;;;1.20;0.70;;;;;;;5.29;nan;102058.25;10549501;28;20112;-80
2022/12/27 13:19:07;;;;;;;7.90;1.27;;;;;;;5.34;nan;102041.22;10556561;28;20418;-81
2022/12/27 13:24:23;;;;;;;0.30;0.30;;;;;;;5.38;nan;102038.00;10569466;28;20043;-79
2022/12/27 13:29:55;;;;;;;1.55;1.33;;;;;;;5.32;nan;102019.47;10550520;28;20052;-81
2022/12/27 13:35:29;;;;;;;1.05;0.68;;;;;;;5.28;nan;102020.09;10574335;28;20078;-79
2022/12/27 13:40:49;;;;;;;0.63;0.63;;;;;;;5.20;nan;102005.78;10557624;27;20337;-81
2022/12/27 13:46:03;;;;;;;0.40;0.40;;;;;;;5.14;nan;102002.00;10572039;28;20077;-81
2022/12/27 13:51:34;;;;;;;3.83;0.98;;;;;;;5.12;nan;102007.91;10575495;28;20043;-83
2022/12/27 13:56:48;;;;;;;;;;;;;;;5.09;nan;101998.25;10573968;27;20096;-78
2022/12/27 14:02:19;;;;;;;1.58;0.95;;;;;;;4.88;nan;102002.13;10581273;27;20341;-80
2022/12/27 14:08:00;;;;;;;2.05;0.50;;;;;;;4.81;nan;101997.41;10568133;27;20058;-80
2022/12/27 14:13:05;;;;;;;3.00;0.50;;;;;;;4.85;nan;102002.88;10574781;28;20745;-82
2022/12/27 14:18:17;;;;;;;0.80;0.77;;;;;;;4.81;nan;102000.00;10585368;28;20071;-81
2022/12/27 14:23:33;;;;;;;3.42;0.68;;;;;;;4.70;nan;101997.66;10565407;28;20043;-81
2022/12/27 14:28:52;;;;;;;0.93;0.68;;;;;;;4.68;nan;101994.06;10570352;28;20044;-81
2022/12/27 14:34:38;;;;;;;0.85;0.85;;;;;;;4.67;nan;101988.78;10571671;28;20564;-79
2022/12/27 14:40:07;;;;;;;1.20;0.60;;;;;;;4.65;nan;102004.25;10552080;28;20101;-80
2022/12/27 14:45:53;;;;;;;2.17;1.10;;;;;;;4.54;nan;101994.94;10579933;28;20089;-81
2022/12/27 14:51:40;;;;;;;3.00;0.60;;;;;;;4.44;nan;101998.66;10554913;27;20459;-81
2022/12/27 14:57:36;;;;;;;0.47;0.47;;;;;;;4.28;nan;101995.91;10545066;28;20067;-80
2022/12/27 15:03:13;;;;;;;3.13;1.42;;;;;;;4.17;nan;101988.34;10576333;28;20036;-80
2022/12/27 15:08:24;;;;;;;1.30;0.85;;;;;;;4.07;nan;101975.66;10547638;27;20051;-79
2022/12/27 15:14:18;;;;;;;0.50;0.50;;;;;;;3.99;nan;101980.31;10577166;28;20036;-79
2022/12/27 15:20:03;;;;;;;1.60;0.73;;;;;;;3.94;nan;101976.56;10558463;27;20112;-79
2022/12/27 15:25:28;;;;;;;1.00;0.77;;;;;;;3.83;nan;101977.59;10569268;27;20100;-80
2022/12/27 15:31:00;;;;;;;0.80;0.55;;;;;;;3.80;nan;101970.53;10574786;27;20039;-80
2022/12/27 15:36:07;;;;;;;0.47;0.47;;;;;;;3.85;nan;101968.22;10600828;27;20039;-79
2022/12/27 15:41:16;;;;;;;3.17;1.75;;;;;;;3.83;nan;101965.53;10577891;27;20243;-79
2022/12/27 15:46:49;;;;;;;0.73;0.65;;;;;;;3.81;nan;101961.91;10604166;27;20060;-79
2022/12/27 15:51:58;;;;;;;1.50;0.93;;;;;;;3.78;nan;101950.47;10587055;27;20593;-79
2022/12/27 15:57:15;;;;;;;1.98;1.30;;;;;;;3.78;nan;101935.81;10595464;27;20080;-80
2022/12/27 16:02:31;;;;;;;3.53;1.52;;;;;;;3.67;nan;101932.56;10584821;27;20043;-79
2022/12/27 16:07:38;;;;;;;1.58;0.90;;;;;;;3.56;nan;101930.06;10584776;27;20044;-79
2022/12/27 16:12:40;;;;;;;3.67;1.40;;;;;;;3.47;nan;101927.81;10592506;27;20457;-79
2022/12/27 16:17:54;;;;;;;1.02;0.60;;;;;;;3.42;nan;101916.25;10564670;27;20051;-80
2022/12/27 16:23:05;;;;;;;1.25;0.75;;;;;;;3.36;nan;101924.53;10593472;27;20048;-79
2022/12/27 16:28:26;;;;;;;3.08;1.58;;;;;;;3.29;nan;101909.41;10601477;27;20563;-79
2022/12/27 16:33:36;;;;;;;0.47;0.45;;;;;;;3.31;nan;101908.69;10572777;27;20556;-79
2022/12/27 16:39:01;;;;;;;1.45;1.35;;;;;;;3.20;nan;101909.72;10555951;27;20426;-80
2022/12/27 16:44:14;;;;;;;5.22;2.22;;;;;;;3.17;nan;101909.50;10582299;27;20043;-79
2022/12/27 16:49:43;;;;;;;2.22;1.35;;;;;;;3.16;nan;101911.19;10575661;27;20498;-80
2022/12/27 16:55:22;;;;;;;0.50;0.50;;;;;;;3.13;nan;101905.81;10595568;27;20506;-80
2022/12/27 17:00:37;;;;;;;2.20;0.98;;;;;;;3.13;nan;101902.34;10564941;27;20365;-78
2022/12/27 17:05:39;;;;;;;2.95;1.45;;;;;;;3.13;nan;101902.34;10574343;27;20042;-78
2022/12/27 17:10:57;;;;;;;2.05;1.42;;;;;;;3.13;nan;101904.91;10596072;27;20039;-78
2022/12/27 17:16:18;;;;;;;5.30;3.10;;;;;;;3.14;nan;101905.03;10571282;27;20035;-78
2022/12/27 17:21:26;;;;;;;3.22;2.05;;;;;;;3.16;nan;101895.66;10557687;27;20491;-77
2022/12/27 17:27:04;;;;;;;1.50;1.23;;;;;;;3.29;nan;101888.69;10555514;27;20388;-77
2022/12/27 17:32:24;;;;;;;1.92;1.05;;;;;;;3.30;nan;101883.63;10573091;27;20126;-78
2022/12/27 17:37:56;;;;;;;1.17;1.08;;;;;;;3.31;nan;101880.22;10579108;27;20119;-78
2022/12/27 17:48:53;;;;;;;1.25;0.95;;;;;;;3.15;nan;101878.34;10564745;27;20511;-81
2022/12/27 17:59:24;;;;;;;1.65;1.13;;;;;;;3.13;nan;101863.50;10592075;27;20047;-78
2022/12/27 18:04:38;;;;;;;1.60;1.13;;;;;;;3.10;nan;101852.97;10557529;28;20140;-78
2022/12/27 18:09:45;;;;;;;0.77;0.55;;;;;;;3.05;nan;101844.91;10564690;28;20043;-78
2022/12/27 18:14:56;;;;;;;1.17;0.70;;;;;;;3.00;nan;101838.53;10544398;28;20067;-79
2022/12/27 18:19:57;;;;;;;5.47;3.17;;;;;;;2.96;nan;101829.69;10546394;28;20063;-78
2022/12/27 18:24:59;;;;;;;1.38;1.02;;;;;;;2.98;nan;101816.84;10544963;28;20070;-78
2022/12/27 18:30:01;;;;;;;1.67;1.17;;;;;;;2.96;nan;101816.75;10546660;28;20071;-77
2022/12/27 18:35:03;;;;;;;0.73;0.73;;;;;;;2.91;nan;101815.56;10545640;28;20124;-77
2022/12/27 18:40:05;;;;;;;0.40;0.40;;;;;;;2.89;nan;101813.66;10562750;28;20436;-78
2022/12/27 18:45:18;;;;;;;1.60;1.20;;;;;;;2.88;nan;101799.81;10562396;28;20092;-77
2022/12/27 18:50:23;;;;;;;0.75;0.65;;;;;;;2.87;nan;101795.44;10544589;28;21511;-78
2022/12/27 18:55:26;;;;;;;0.98;0.65;;;;;;;2.89;nan;101795.56;10563910;28;20027;-78
2022/12/27 19:00:29;;;;;;;0.80;0.40;;;;;;;2.91;nan;101786.19;10563853;28;20085;-78
2022/12/27 19:05:31;;;;;;;1.80;1.00;;;;;;;2.94;nan;101778.63;10546126;28;20063;-78
2022/12/27 19:10:33;;;;;;;1.95;1.05;;;;;;;2.98;nan;101771.16;10546099;28;20079;-78
2022/12/27 19:15:40;;;;;;;1.20;1.05;;;;;;;2.98;nan;101765.97;10545509;28;20088;-78
2022/12/27 19:20:59;;;;;;;1.45;1.10;;;;;;;2.99;nan;101762.59;10563716;28;20077;-76
2022/12/27 19:26:16;;;;;;;1.77;0.68;;;;;;;3.05;nan;101762.09;10543199;28;20575;-78
2022/12/27 19:31:20;;;;;;;1.50;0.80;;;;;;;3.13;nan;101762.56;10552621;28;20070;-77
2022/12/27 19:36:32;;;;;;;4.38;0.75;;;;;;;3.25;nan;101750.38;10569190;28;20042;-78
2022/12/27 19:41:36;;;;;;;0.57;0.57;;;;;;;3.41;nan;101741.88;10562467;28;20067;-78
2022/12/27 19:46:38;;;;;;;0.43;0.43;;;;;;;3.52;nan;101746.00;10559677;27;20514;-78
2022/12/27 19:51:41;;;;;;;0.47;0.47;;;;;;;3.65;nan;101736.41;10594294;27;20108;-77
2022/12/27 19:56:43;;;;;;;2.53;1.35;;;;;;;3.76;nan;101729.28;10558888;27;20067;-77
2022/12/27 20:01:45;;;;;;;1.25;0.73;;;;;;;3.88;nan;101714.47;10585063;27;20660;-77
2022/12/27 20:06:47;;;;;;;1.98;1.15;;;;;;;3.97;nan;101704.63;10585540;27;20059;-78
2022/12/27 20:11:49;;;;;;;0.90;0.85;;;;;;;4.03;nan;101704.09;10542765;27;20436;-79
2022/12/27 20:16:51;;;;;;;0.40;0.40;;;;;;;4.15;nan;101698.75;10594442;27;20036;-78
2022/12/27 20:21:52;;;;;;;2.40;0.75;;;;;;;4.23;nan;101692.28;10566544;27;20430;-78
2022/12/27 20:26:54;;;;;;;0.75;0.45;;;;;;;4.30;nan;101678.88;10534465;27;20093;-78
2022/12/27 20:31:58;;;;;;;0.70;0.43;;;;;;;4.38;nan;101682.81;10567994;28;20450;-77
2022/12/27 20:37:00;;;;;;;0.73;0.47;;;;;;;4.48;nan;101685.91;10566454;28;20047;-78
2022/12/27 20:42:02;;;;;;;0.82;0.60;;;;;;;4.56;nan;101682.03;10570367;28;20078;-79
2022/12/27 20:47:04;;;;;;;0.38;0.38;;;;;;;4.58;nan;101668.34;10570174;28;20046;-79
2022/12/27 20:52:05;;;;;;;0.32;0.20;;;;;;;4.63;nan;101662.53;10571729;28;20451;-79
2022/12/27 20:57:08;;;;;;;2.58;1.55;;;;;;;4.69;nan;101662.88;10571175;28;20036;-79
2022/12/27 21:02:10;;;;;;;0.30;0.30;;;;;;;4.74;nan;101649.34;10579797;27;20043;-79
2022/12/27 21:07:12;;;;;;;1.58;0.60;;;;;;;4.77;nan;101639.13;10571127;28;20053;-79
2022/12/27 21:12:13;;;;;;;0.15;0.15;;;;;;;4.85;nan;101625.66;10572120;27;20107;-77
2022/12/27 21:17:16;;;;;;;1.08;0.55;;;;;;;4.87;nan;101616.25;10570287;28;20640;-79
2022/12/27 21:22:17;;;;;;;0.70;0.55;;;;;;;4.91;nan;101610.44;10580652;27;20084;-79
2022/12/27 21:27:19;;;;;;;0.73;0.52;;;;;;;4.91;nan;101602.66;10587138;27;20769;-79
2022/12/27 21:32:20;;;;;;;0.40;0.40;;;;;;;4.86;nan;101604.09;10561245;27;20035;-79
2022/12/27 21:37:22;;;;;;;0.32;0.32;;;;;;;4.92;nan;101599.22;10581302;27;20039;-79
2022/12/27 21:42:24;;;;;;;1.63;0.80;;;;;;;5.00;nan;101595.34;10582168;27;20514;-78
2022/12/27 21:47:28;;;;;;;8.40;0.73;;;;;;;5.05;nan;101598.19;10568284;27;20046;-80
2022/12/27 21:52:29;;;;;;;4.20;1.60;;;;;;;5.05;nan;101580.88;10565454;27;20532;-79
2022/12/27 21:57:31;;;;;;;13.50;1.35;;;;;;;5.08;nan;101573.25;10561103;27;20108;-79
2022/12/27 22:02:32;;;;;;;0.60;0.47;;;;;;;5.00;nan;101565.88;10578338;27;20039;-79
2022/12/27 22:07:34;;;;;;;1.35;0.60;;;;;;;4.97;nan;101556.25;10584640;27;20391;-79
2022/12/27 22:12:36;;;;;;;0.77;0.68;;;;;;;4.87;nan;101556.56;10599616;27;20043;-79
2022/12/27 22:17:37;;;;;;;1.55;0.90;;;;;;;4.80;nan;101533.72;10587790;28;20040;-79
2022/12/27 22:22:39;;;;;;;0.28;0.28;;;;;;;4.76;nan;101543.03;10629529;28;20096;-79
2022/12/27 22:27:40;;;;;;;1.02;0.55;;;;;;;4.73;nan;101528.19;10555442;28;20108;-77
2022/12/27 22:32:42;;;;;;;0.63;0.47;;;;;;;4.66;nan;101517.41;10588834;28;20081;-79
2022/12/27 22:37:44;;;;;;;1.05;0.50;;;;;;;4.66;nan;101509.63;10557866;28;20040;-78
2022/12/27 22:42:45;;;;;;;0.30;0.30;;;;;;;4.63;nan;101512.94;10567711;28;20065;-78
2022/12/27 22:47:47;;;;;;;1.88;1.02;;;;;;;4.62;nan;101503.38;10585852;28;20054;-79
2022/12/27 22:52:49;;;;;;;2.25;0.43;;;;;;;4.60;nan;101492.91;10601813;28;20044;-79
2022/12/27 22:57:50;;;;;;;0.30;0.30;;;;;;;4.60;nan;101492.03;10559421;27;20093;-79
2022/12/27 23:02:52;;;;;;;0.38;0.20;;;;;;;4.55;nan;101475.34;10560998;27;20043;-78
2022/12/27 23:07:54;;;;;;;0.43;0.20;;;;;;;4.56;nan;101458.97;10581369;27;20415;-78
2022/12/27 23:13:06;;;;;;;0.80;0.45;;;;;;;4.52;nan;101468.28;10552463;27;20051;-79
2022/12/27 23:18:08;;;;;;;3.20;1.13;;;;;;;4.49;nan;101446.47;10571548;28;20640;-78
2022/12/27 23:23:09;;;;;;;0.10;0.10;;;;;;;4.45;nan;101434.19;10575097;27;20451;-77
2022/12/27 23:28:11;;;;;;;0.43;0.38;;;;;;;4.50;nan;101432.72;10558000;27;20086;-78
2022/12/27 23:33:13;;;;;;;0.17;0.17;;;;;;;4.51;nan;101429.31;10576539;27;20063;-78
2022/12/27 23:38:14;;;;;;;0.52;0.43;;;;;;;4.48;nan;101413.59;10595776;27;20075;-78
2022/12/27 23:43:16;;;;;;;0.13;0.13;;;;;;;4.51;nan;101400.78;10590961;27;20074;-78
2022/12/27 23:48:37;;;;;;;0.22;0.22;;;;;;;4.53;nan;101387.06;10582407;27;20039;-78
2022/12/27 23:53:40;;;;;;;0.52;0.45;;;;;;;4.53;nan;101375.81;10579738;27;20066;-77
2022/12/27 23:58:42;;;;;;;0.68;0.52;;;;;;;4.53;nan;101370.63;10585096;27;20545;-78
